sensor_id;sensor_type;location;lat;lon;timestamp;pressure;altitude;pressure_sealevel;temperature;humidity
26438;BME280;14133;48.430;9.888;2022-08-19T00:08:36;94618.06;;;21.93;62.01
26438;BME280;14133;48.430;9.888;2022-08-19T00:18:17;94608.03;;;21.89;62.01
26438;BME280;14133;48.430;9.888;2022-08-19T00:27:57;94570.19;;;21.79;61.42
26438;BME280;14133;48.430;9.888;2022-08-19T00:37:39;94592.25;;;21.81;61.52
26438;BME280;14133;48.430;9.888;2022-08-19T00:47:23;94575.44;;;21.66;61.49
26438;BME280;14133;48.430;9.888;2022-08-19T00:57:11;94556.16;;;21.60;61.50
26438;BME280;14133;48.430;9.888;2022-08-19T01:16:45;94586.34;;;21.58;61.64
26438;BME280;14133;48.430;9.888;2022-08-19T01:26:27;94613.59;;;21.79;61.15
26438;BME280;14133;48.430;9.888;2022-08-19T01:36:16;94602.50;;;21.69;61.58
26438;BME280;14133;48.430;9.888;2022-08-19T01:46:02;94578.69;;;21.53;61.45
26438;BME280;14133;48.430;9.888;2022-08-19T01:55:43;94609.63;;;21.59;61.02
26438;BME280;14133;48.430;9.888;2022-08-19T02:05:24;94627.72;;;21.70;61.50
26438;BME280;14133;48.430;9.888;2022-08-19T02:15:05;94637.38;;;21.71;61.16
26438;BME280;14133;48.430;9.888;2022-08-19T02:24:47;94601.22;;;21.50;61.31
26438;BME280;14133;48.430;9.888;2022-08-19T02:34:28;94598.38;;;21.61;61.53
26438;BME280;14133;48.430;9.888;2022-08-19T02:44:08;94583.66;;;21.58;61.16
26438;BME280;14133;48.430;9.888;2022-08-19T02:53:49;94588.06;;;21.49;61.09
26438;BME280;14133;48.430;9.888;2022-08-19T03:03:29;94586.13;;;21.49;60.59
26438;BME280;14133;48.430;9.888;2022-08-19T03:13:15;94558.38;;;21.38;61.09
26438;BME280;14133;48.430;9.888;2022-08-19T03:22:55;94555.72;;;21.34;60.82
26438;BME280;14133;48.430;9.888;2022-08-19T03:32:36;94585.09;;;21.39;60.35
26438;BME280;14133;48.430;9.888;2022-08-19T03:42:16;94601.63;;;21.49;61.12
26438;BME280;14133;48.430;9.888;2022-08-19T03:51:58;94606.19;;;21.55;60.97
26438;BME280;14133;48.430;9.888;2022-08-19T04:11:24;94525.31;;;21.19;60.52
26438;BME280;14133;48.430;9.888;2022-08-19T04:21:06;94543.44;;;21.26;61.04
26438;BME280;14133;48.430;9.888;2022-08-19T04:30:50;94562.56;;;21.42;60.57
26438;BME280;14133;48.430;9.888;2022-08-19T04:40:31;94593.94;;;21.43;60.60
26438;BME280;14133;48.430;9.888;2022-08-19T04:50:30;94606.69;;;21.47;60.95
26438;BME280;14133;48.430;9.888;2022-08-19T05:00:11;94606.59;;;21.26;60.73
26438;BME280;14133;48.430;9.888;2022-08-19T05:09:51;94629.31;;;21.36;60.48
26438;BME280;14133;48.430;9.888;2022-08-19T05:19:32;94655.22;;;21.41;60.51
26438;BME280;14133;48.430;9.888;2022-08-19T05:29:31;94645.81;;;21.18;60.40
26438;BME280;14133;48.430;9.888;2022-08-19T05:39:15;94653.19;;;21.18;60.28
26438;BME280;14133;48.430;9.888;2022-08-19T05:48:56;94637.75;;;21.11;60.65
26438;BME280;14133;48.430;9.888;2022-08-19T05:58:37;94639.69;;;21.14;60.10
26438;BME280;14133;48.430;9.888;2022-08-19T06:08:18;94644.69;;;21.16;60.69
26438;BME280;14133;48.430;9.888;2022-08-19T06:17:59;94659.41;;;21.15;60.65
26438;BME280;14133;48.430;9.888;2022-08-19T06:27:41;94671.56;;;21.34;60.91
26438;BME280;14133;48.430;9.888;2022-08-19T06:37:22;94672.75;;;21.33;60.89
26438;BME280;14133;48.430;9.888;2022-08-19T06:47:04;94650.19;;;21.08;60.38
26438;BME280;14133;48.430;9.888;2022-08-19T06:56:45;94665.50;;;21.22;60.59
26438;BME280;14133;48.430;9.888;2022-08-19T07:06:26;94649.50;;;21.01;60.66
26438;BME280;14133;48.430;9.888;2022-08-19T07:16:07;94691.03;;;21.28;60.63
26438;BME280;14133;48.430;9.888;2022-08-19T07:25:47;94671.53;;;21.06;60.75
26438;BME280;14133;48.430;9.888;2022-08-19T07:35:28;94694.53;;;21.25;60.70
26438;BME280;14133;48.430;9.888;2022-08-19T07:45:08;94687.25;;;21.19;60.92
26438;BME280;14133;48.430;9.888;2022-08-19T07:54:49;94659.56;;;21.00;61.05
26438;BME280;14133;48.430;9.888;2022-08-19T08:04:50;94640.22;;;20.98;60.90
26438;BME280;14133;48.430;9.888;2022-08-19T08:14:52;94674.22;;;21.06;61.66
26438;BME280;14133;48.430;9.888;2022-08-19T08:24:34;94688.97;;;21.05;61.57
26438;BME280;14133;48.430;9.888;2022-08-19T08:34:16;94708.66;;;21.09;61.62
26438;BME280;14133;48.430;9.888;2022-08-19T08:43:57;94681.34;;;20.93;63.03
26438;BME280;14133;48.430;9.888;2022-08-19T08:53:40;94728.00;;;21.11;63.18
26438;BME280;14133;48.430;9.888;2022-08-19T09:03:26;94728.03;;;21.08;62.69
26438;BME280;14133;48.430;9.888;2022-08-19T09:23:07;94709.19;;;20.97;62.01
26438;BME280;14133;48.430;9.888;2022-08-19T09:32:48;94712.25;;;20.99;62.26
26438;BME280;14133;48.430;9.888;2022-08-19T09:42:28;94690.97;;;20.97;61.99
26438;BME280;14133;48.430;9.888;2022-08-19T09:52:10;94709.47;;;21.06;62.69
26438;BME280;14133;48.430;9.888;2022-08-19T10:01:51;94704.06;;;21.06;62.75
26438;BME280;14133;48.430;9.888;2022-08-19T10:11:35;94717.66;;;20.99;62.89
26438;BME280;14133;48.430;9.888;2022-08-19T10:21:23;94740.09;;;21.03;62.54
26438;BME280;14133;48.430;9.888;2022-08-19T10:31:13;94749.00;;;21.04;62.68
26438;BME280;14133;48.430;9.888;2022-08-19T10:40:54;94745.94;;;20.98;62.50
26438;BME280;14133;48.430;9.888;2022-08-19T10:50:36;94745.66;;;20.89;62.87
26438;BME280;14133;48.430;9.888;2022-08-19T11:00:35;94744.13;;;20.88;63.14
26438;BME280;14133;48.430;9.888;2022-08-19T11:10:15;94751.06;;;20.89;63.57
26438;BME280;14133;48.430;9.888;2022-08-19T11:19:59;94754.97;;;20.88;63.11
26438;BME280;14133;48.430;9.888;2022-08-19T11:29:43;94764.22;;;20.94;63.15
26438;BME280;14133;48.430;9.888;2022-08-19T11:39:25;94776.97;;;20.97;63.34
26438;BME280;14133;48.430;9.888;2022-08-19T11:49:07;94764.97;;;20.94;62.76
26438;BME280;14133;48.430;9.888;2022-08-19T11:58:49;94765.28;;;21.00;63.10
26438;BME280;14133;48.430;9.888;2022-08-19T12:08:30;94771.88;;;20.99;62.51
26438;BME280;14133;48.430;9.888;2022-08-19T12:18:50;94786.59;;;20.98;62.94
26438;BME280;14133;48.430;9.888;2022-08-19T12:28:31;94751.59;;;20.73;62.94
26438;BME280;14133;48.430;9.888;2022-08-19T12:38:12;94772.00;;;20.85;63.38
26438;BME280;14133;48.430;9.888;2022-08-19T12:47:53;94765.09;;;20.84;62.69
26438;BME280;14133;48.430;9.888;2022-08-19T12:57:34;94794.44;;;20.89;62.88
26438;BME280;14133;48.430;9.888;2022-08-19T13:07:15;94787.97;;;20.75;63.45
26438;BME280;14133;48.430;9.888;2022-08-19T13:16:56;94796.84;;;20.79;62.96
26438;BME280;14133;48.430;9.888;2022-08-19T13:26:37;94801.81;;;20.85;63.34
26438;BME280;14133;48.430;9.888;2022-08-19T13:36:17;94793.78;;;20.77;62.87
26438;BME280;14133;48.430;9.888;2022-08-19T13:45:58;94808.44;;;20.80;62.85
26438;BME280;14133;48.430;9.888;2022-08-19T14:05:24;94825.09;;;20.82;63.22
26438;BME280;14133;48.430;9.888;2022-08-19T14:15:07;94819.69;;;20.78;62.31
26438;BME280;14133;48.430;9.888;2022-08-19T14:24:48;94797.31;;;20.67;62.21
26438;BME280;14133;48.430;9.888;2022-08-19T14:34:28;94808.91;;;20.67;62.63
26438;BME280;14133;48.430;9.888;2022-08-19T14:44:08;94829.78;;;20.71;62.57
26438;BME280;14133;48.430;9.888;2022-08-19T14:53:52;94834.03;;;20.72;62.86
26438;BME280;14133;48.430;9.888;2022-08-19T15:03:32;94844.84;;;20.82;62.68
26438;BME280;14133;48.430;9.888;2022-08-19T15:13:13;94861.09;;;20.79;62.59
26438;BME280;14133;48.430;9.888;2022-08-19T15:22:53;94846.84;;;20.75;62.81
26438;BME280;14133;48.430;9.888;2022-08-19T15:32:34;94856.84;;;20.78;62.72
26438;BME280;14133;48.430;9.888;2022-08-19T15:42:16;94858.44;;;20.75;63.25
26438;BME280;14133;48.430;9.888;2022-08-19T15:51:57;94879.31;;;20.78;64.49
26438;BME280;14133;48.430;9.888;2022-08-19T16:01:39;94896.75;;;20.77;62.88
26438;BME280;14133;48.430;9.888;2022-08-19T16:11:38;94887.84;;;20.73;62.85
26438;BME280;14133;48.430;9.888;2022-08-19T16:21:20;94856.63;;;20.50;64.66
26438;BME280;14133;48.430;9.888;2022-08-19T16:31:00;94891.34;;;20.70;64.32
26438;BME280;14133;48.430;9.888;2022-08-19T16:40:41;94901.81;;;20.64;64.05
26438;BME280;14133;48.430;9.888;2022-08-19T16:50:21;94922.72;;;20.67;64.67
26438;BME280;14133;48.430;9.888;2022-08-19T17:00:04;94936.63;;;20.70;63.72
26438;BME280;14133;48.430;9.888;2022-08-19T17:09:49;94918.19;;;20.46;63.47
26438;BME280;14133;48.430;9.888;2022-08-19T17:19:29;94906.56;;;20.49;64.45
26438;BME280;14133;48.430;9.888;2022-08-19T17:29:10;94940.13;;;20.66;65.33
26438;BME280;14133;48.430;9.888;2022-08-19T17:38:52;94933.16;;;20.65;65.31
26438;BME280;14133;48.430;9.888;2022-08-19T17:48:34;94926.69;;;20.48;66.69
26438;BME280;14133;48.430;9.888;2022-08-19T17:58:18;94917.44;;;20.42;67.01
26438;BME280;14133;48.430;9.888;2022-08-19T18:08:00;94922.84;;;20.46;66.27
26438;BME280;14133;48.430;9.888;2022-08-19T18:17:40;94913.59;;;20.36;66.79
26438;BME280;14133;48.430;9.888;2022-08-19T18:27:21;94918.59;;;20.41;66.40
26438;BME280;14133;48.430;9.888;2022-08-19T18:37:02;94928.66;;;20.44;66.73
26438;BME280;14133;48.430;9.888;2022-08-19T18:46:42;94924.78;;;20.42;66.26
26438;BME280;14133;48.430;9.888;2022-08-19T18:56:41;94941.00;;;20.45;66.03
26438;BME280;14133;48.430;9.888;2022-08-19T19:06:28;94950.31;;;20.41;65.26
26438;BME280;14133;48.430;9.888;2022-08-19T19:16:09;94931.84;;;20.25;66.13
26438;BME280;14133;48.430;9.888;2022-08-19T19:25:51;94962.72;;;20.38;65.76
26438;BME280;14133;48.430;9.888;2022-08-19T19:35:31;94990.97;;;20.44;65.97
26438;BME280;14133;48.430;9.888;2022-08-19T19:45:13;94975.91;;;20.32;65.84
26438;BME280;14133;48.430;9.888;2022-08-19T20:04:44;94979.41;;;20.26;66.20
26438;BME280;14133;48.430;9.888;2022-08-19T20:14:30;95017.25;;;20.44;65.13
26438;BME280;14133;48.430;9.888;2022-08-19T20:24:15;95002.59;;;20.30;65.41
26438;BME280;14133;48.430;9.888;2022-08-19T20:33:57;95001.84;;;20.30;65.10
26438;BME280;14133;48.430;9.888;2022-08-19T20:43:37;94998.75;;;20.28;66.22
26438;BME280;14133;48.430;9.888;2022-08-19T20:53:19;95001.44;;;20.31;66.14
26438;BME280;14133;48.430;9.888;2022-08-19T21:03:01;95012.25;;;20.35;66.06
26438;BME280;14133;48.430;9.888;2022-08-19T21:12:42;95005.72;;;20.29;66.19
26438;BME280;14133;48.430;9.888;2022-08-19T21:22:23;95003.38;;;20.27;65.70
26438;BME280;14133;48.430;9.888;2022-08-19T21:32:04;95011.88;;;20.29;66.48
26438;BME280;14133;48.430;9.888;2022-08-19T21:41:44;95006.88;;;20.28;66.69
26438;BME280;14133;48.430;9.888;2022-08-19T21:51:25;94992.59;;;20.20;66.20
26438;BME280;14133;48.430;9.888;2022-08-19T22:01:05;95012.28;;;20.31;65.84
26438;BME280;14133;48.430;9.888;2022-08-19T22:10:47;94989.13;;;20.12;66.06
26438;BME280;14133;48.430;9.888;2022-08-19T22:20:30;95000.31;;;20.21;66.10
26438;BME280;14133;48.430;9.888;2022-08-19T22:30:13;94979.06;;;20.09;65.92
26438;BME280;14133;48.430;9.888;2022-08-19T22:39:54;94996.09;;;20.13;66.23
26438;BME280;14133;48.430;9.888;2022-08-19T22:49:34;94999.56;;;20.17;65.38
26438;BME280;14133;48.430;9.888;2022-08-19T22:59:15;95011.13;;;20.25;64.83
26438;BME280;14133;48.430;9.888;2022-08-19T23:08:55;94983.31;;;20.10;64.47
26438;BME280;14133;48.430;9.888;2022-08-19T23:18:36;94991.03;;;20.19;63.98
26438;BME280;14133;48.430;9.888;2022-08-19T23:28:16;94982.91;;;20.12;64.13
26438;BME280;14133;48.430;9.888;2022-08-19T23:38:16;94996.84;;;20.17;63.70
26438;BME280;14133;48.430;9.888;2022-08-19T23:47:58;94993.34;;;20.20;63.59
26438;BME280;14133;48.430;9.888;2022-08-19T23:57:38;94982.56;;;20.10;63.67
